createdAt,value
2023-04-23T00:00:57.816Z,9.55
2023-04-23T00:01:59.310Z,9.76
2023-04-23T00:02:58.482Z,9.39
2023-04-23T00:03:59.012Z,9.06
2023-04-23T00:05:02.712Z,9.39
2023-04-23T00:06:00.290Z,9.51
2023-04-23T00:06:58.490Z,9.51
2023-04-23T00:08:00.604Z,9.61
2023-04-23T00:09:00.109Z,9.49
2023-04-23T00:09:58.164Z,9.39
2023-04-23T00:10:55.189Z,9.44
2023-04-23T00:11:52.277Z,9.41
2023-04-23T00:12:49.451Z,9.26
2023-04-23T00:13:47.527Z,9.32
2023-04-23T00:14:44.566Z,9.26
2023-04-23T00:15:41.556Z,9.60
2023-04-23T00:16:40.363Z,9.60
2023-04-23T00:17:37.375Z,9.50
2023-04-23T00:18:34.298Z,9.57
2023-04-23T00:19:31.191Z,9.59
2023-04-23T00:20:28.053Z,9.27
2023-04-23T00:21:25.084Z,9.37
2023-04-23T00:22:22.216Z,9.12
2023-04-23T00:23:19.074Z,9.14
2023-04-23T00:24:15.912Z,8.87
2023-04-23T00:25:12.763Z,8.83
2023-04-23T00:26:09.474Z,8.62
2023-04-23T00:27:06.877Z,8.82
2023-04-23T00:28:04.249Z,8.69
2023-04-23T00:29:00.998Z,9.20
2023-04-23T00:29:57.828Z,9.08
2023-04-23T00:30:54.725Z,8.96
2023-04-23T00:31:51.737Z,9.22
2023-04-23T00:32:48.662Z,9.56
2023-04-23T00:33:45.513Z,9.30
2023-04-23T00:34:42.604Z,9.14
2023-04-23T00:35:39.668Z,9.28
2023-04-23T00:36:36.432Z,9.39
2023-04-23T00:37:33.295Z,9.40
2023-04-23T00:38:30.172Z,9.31
2023-04-23T00:39:26.943Z,9.29
2023-04-23T00:40:23.993Z,8.81
2023-04-23T00:41:21.151Z,9.23
2023-04-23T00:42:17.937Z,9.24
2023-04-23T00:43:15.577Z,9.13
2023-04-23T00:44:13.251Z,9.14
2023-04-23T00:45:10.458Z,9.17
2023-04-23T00:46:07.321Z,8.69
2023-04-23T00:47:05.739Z,8.85
2023-04-23T00:48:03.952Z,8.75
2023-04-23T00:49:01.630Z,9.14
2023-04-23T00:49:59.814Z,9.12
2023-04-23T00:51:00.757Z,9.24
2023-04-23T00:51:57.579Z,9.12
2023-04-23T00:52:54.388Z,8.80
2023-04-23T00:53:51.488Z,9.51
2023-04-23T00:54:48.306Z,9.06
2023-04-23T00:55:45.453Z,9.01
2023-04-23T00:56:42.266Z,9.28
2023-04-23T00:57:39.684Z,9.25
2023-04-23T00:58:36.868Z,9.39
2023-04-23T00:59:34.185Z,9.10
2023-04-23T01:00:31.030Z,9.25
2023-04-23T01:01:28.195Z,9.21
2023-04-23T01:02:28.605Z,9.16
2023-04-23T01:03:27.047Z,9.14
2023-04-23T01:04:27.851Z,8.84
2023-04-23T01:05:26.116Z,8.92
2023-04-23T01:06:25.290Z,8.92
2023-04-23T01:07:23.689Z,8.89
2023-04-23T01:08:25.184Z,8.63
2023-04-23T01:09:23.547Z,8.92
2023-04-23T01:10:21.466Z,8.45
2023-04-23T01:11:18.452Z,8.45
2023-04-23T01:12:16.786Z,9.00
2023-04-23T01:13:14.656Z,9.03
2023-04-23T01:14:11.510Z,8.96
2023-04-23T01:15:09.151Z,9.01
2023-04-23T01:16:06.780Z,8.96
2023-04-23T01:17:04.354Z,8.65
2023-04-23T01:18:01.834Z,8.91
2023-04-23T01:18:58.694Z,9.05
2023-04-23T01:19:55.592Z,9.04
2023-04-23T01:20:52.485Z,8.86
2023-04-23T01:21:50.963Z,9.01
2023-04-23T01:22:57.113Z,9.21
2023-04-23T01:23:53.937Z,9.04
2023-04-23T01:24:52.106Z,8.82
2023-04-23T01:25:49.071Z,8.68
2023-04-23T01:26:56.480Z,8.87
2023-04-23T01:27:53.489Z,8.41
2023-04-23T01:28:50.733Z,8.34
2023-04-23T01:29:48.178Z,8.54
2023-04-23T01:30:46.663Z,9.26
2023-04-23T01:31:45.101Z,9.34
2023-04-23T01:32:43.277Z,9.31
2023-04-23T01:33:41.474Z,9.20
2023-04-23T01:34:39.538Z,9.07
2023-04-23T01:35:36.716Z,9.06
2023-04-23T01:36:36.112Z,8.89
2023-04-23T01:37:36.081Z,8.89
2023-04-23T01:38:34.279Z,8.82
2023-04-23T01:39:31.512Z,7.62
2023-04-23T01:40:28.742Z,8.44
2023-04-23T01:41:25.697Z,8.51
2023-04-23T01:42:23.591Z,8.80
2023-04-23T01:43:21.113Z,8.64
2023-04-23T01:44:18.059Z,8.47
2023-04-23T01:45:15.664Z,8.83
2023-04-23T01:46:12.925Z,8.59
2023-04-23T01:47:10.221Z,8.77
2023-04-23T01:48:07.273Z,9.12
2023-04-23T01:49:04.509Z,8.93
2023-04-23T01:50:01.362Z,9.03
2023-04-23T01:50:58.739Z,8.98
2023-04-23T01:51:55.555Z,8.52
2023-04-23T01:52:52.396Z,8.60
2023-04-23T01:53:49.250Z,9.18
2023-04-23T01:54:46.038Z,9.07
2023-04-23T01:55:45.676Z,8.83
2023-04-23T01:56:42.595Z,9.17
2023-04-23T01:57:40.248Z,9.23
2023-04-23T01:58:36.968Z,9.24
2023-04-23T01:59:33.715Z,8.40
2023-04-23T02:00:31.057Z,9.19
2023-04-23T02:01:42.991Z,8.93
2023-04-23T02:02:42.370Z,8.48
2023-04-23T02:03:39.594Z,8.55
2023-04-23T02:04:39.061Z,8.69
2023-04-23T02:05:36.832Z,8.97
2023-04-23T02:06:33.572Z,8.91
2023-04-23T02:07:32.269Z,8.85
2023-04-23T02:08:29.146Z,8.61
2023-04-23T02:09:25.942Z,8.87
2023-04-23T02:10:22.734Z,9.15
2023-04-23T02:11:19.544Z,8.88
2023-04-23T02:12:16.431Z,9.18
2023-04-23T02:13:13.201Z,8.89
2023-04-23T02:14:10.486Z,8.61
2023-04-23T02:15:09.611Z,8.38
2023-04-23T02:16:06.787Z,8.34
2023-04-23T02:17:03.638Z,8.13
2023-04-23T02:18:00.397Z,8.49
2023-04-23T02:18:57.306Z,8.67
2023-04-23T02:19:55.846Z,8.62
2023-04-23T02:20:52.580Z,8.86
2023-04-23T02:21:49.515Z,8.53
2023-04-23T02:22:47.871Z,9.05
2023-04-23T02:23:44.600Z,8.50
2023-04-23T02:24:42.581Z,8.06
2023-04-23T02:25:39.722Z,8.64
2023-04-23T02:26:36.791Z,8.40
2023-04-23T02:27:33.522Z,7.93
2023-04-23T02:28:31.417Z,8.42
2023-04-23T02:29:28.245Z,8.35
2023-04-23T02:30:25.687Z,8.42
2023-04-23T02:31:22.864Z,8.50
2023-04-23T02:32:20.108Z,8.69
2023-04-23T02:33:16.916Z,8.60
2023-04-23T02:34:13.734Z,8.81
2023-04-23T02:35:10.764Z,8.82
2023-04-23T02:36:07.673Z,8.60
2023-04-23T02:37:07.695Z,8.57
2023-04-23T02:38:04.871Z,8.86
2023-04-23T02:39:01.656Z,8.72
2023-04-23T02:39:58.382Z,8.57
2023-04-23T02:40:55.188Z,8.85
2023-04-23T02:41:52.002Z,8.61
2023-04-23T02:42:49.717Z,8.29
2023-04-23T02:43:46.987Z,8.32
2023-04-23T02:44:43.812Z,8.18
2023-04-23T02:45:40.597Z,8.44
2023-04-23T02:46:38.121Z,8.51
2023-04-23T02:47:34.866Z,7.60
2023-04-23T02:48:31.843Z,8.28
2023-04-23T02:49:28.718Z,7.68
2023-04-23T02:50:25.496Z,7.80
2023-04-23T02:51:22.338Z,7.72
2023-04-23T02:52:19.297Z,7.72
2023-04-23T02:53:16.397Z,8.38
2023-04-23T02:54:14.053Z,8.61
2023-04-23T02:55:11.155Z,8.46
2023-04-23T02:56:08.035Z,8.50
2023-04-23T02:57:06.246Z,8.41
2023-04-23T02:58:03.046Z,8.38
2023-04-23T02:58:59.877Z,8.04
2023-04-23T02:59:56.619Z,8.58
2023-04-23T03:00:53.541Z,8.22
2023-04-23T03:01:51.581Z,7.64
2023-04-23T03:02:48.495Z,8.00
2023-04-23T03:03:45.629Z,7.98
2023-04-23T03:04:43.321Z,7.70
2023-04-23T03:05:40.728Z,7.95
2023-04-23T03:06:37.675Z,8.16
2023-04-23T03:07:34.578Z,8.10
2023-04-23T03:08:31.409Z,7.83
2023-04-23T03:09:28.185Z,7.95
2023-04-23T03:10:25.043Z,8.11
2023-04-23T03:11:22.729Z,8.43
2023-04-23T03:12:19.466Z,8.37
2023-04-23T03:13:16.390Z,8.49
2023-04-23T03:14:13.232Z,8.46
2023-04-23T03:15:10.360Z,7.64
2023-04-23T03:16:07.410Z,8.12
2023-04-23T03:17:04.297Z,7.91
2023-04-23T03:18:01.554Z,7.97
2023-04-23T03:18:59.047Z,8.50
2023-04-23T03:19:55.832Z,8.34
2023-04-23T03:20:52.549Z,8.59
2023-04-23T03:21:49.292Z,8.52
2023-04-23T03:22:46.116Z,8.08
2023-04-23T03:23:42.871Z,8.18
2023-04-23T03:24:39.854Z,8.13
2023-04-23T03:25:36.873Z,7.93
2023-04-23T03:26:34.789Z,7.10
2023-04-23T03:27:31.615Z,8.24
2023-04-23T03:28:28.371Z,7.70
2023-04-23T03:29:25.212Z,8.49
2023-04-23T03:30:22.175Z,8.64
2023-04-23T03:31:19.163Z,8.71
2023-04-23T03:32:16.041Z,8.73
2023-04-23T03:33:12.767Z,8.77
2023-04-23T03:34:09.555Z,8.38
2023-04-23T03:35:06.682Z,8.54
2023-04-23T03:36:03.644Z,7.91
2023-04-23T03:37:00.473Z,8.69
2023-04-23T03:37:57.227Z,8.45
2023-04-23T03:38:53.989Z,7.70
2023-04-23T03:39:51.397Z,7.99
2023-04-23T03:40:48.294Z,7.97
2023-04-23T03:41:45.049Z,7.92
2023-04-23T03:42:41.762Z,8.26
2023-04-23T03:43:38.452Z,8.67
2023-04-23T03:44:35.188Z,8.85
2023-04-23T03:45:32.471Z,8.79
2023-04-23T03:46:48.042Z,8.64
2023-04-23T03:47:45.058Z,8.68
2023-04-23T03:48:41.852Z,8.54
2023-04-23T03:49:38.809Z,8.59
2023-04-23T03:50:38.994Z,8.55
2023-04-23T03:51:37.048Z,8.17
2023-04-23T03:52:33.895Z,8.74
2023-04-23T03:53:30.806Z,8.32
2023-04-23T03:54:28.306Z,7.61
2023-04-23T03:55:25.447Z,7.83
2023-04-23T03:56:22.186Z,7.79
2023-04-23T03:57:18.920Z,7.50
2023-04-23T03:58:15.753Z,7.70
2023-04-23T03:59:12.489Z,7.85
2023-04-23T04:00:11.920Z,8.14
2023-04-23T04:01:08.729Z,7.70
2023-04-23T04:02:06.161Z,8.51
2023-04-23T04:03:03.284Z,8.51
2023-04-23T04:04:00.387Z,8.69
2023-04-23T04:04:57.574Z,8.87
2023-04-23T04:05:54.727Z,8.92
2023-04-23T04:06:51.508Z,9.04
2023-04-23T04:07:48.292Z,8.89
2023-04-23T04:08:45.104Z,8.81
2023-04-23T04:09:42.103Z,9.08
2023-04-23T04:10:38.909Z,8.41
2023-04-23T04:11:36.932Z,8.74
2023-04-23T04:12:33.834Z,8.93
2023-04-23T04:13:31.390Z,9.12
2023-04-23T04:14:28.292Z,8.94
2023-04-23T04:15:25.165Z,9.08
2023-04-23T04:16:21.935Z,8.13
2023-04-23T04:17:18.775Z,9.06
2023-04-23T04:18:16.344Z,9.28
2023-04-23T04:19:13.117Z,9.51
2023-04-23T04:20:11.291Z,8.88
2023-04-23T04:21:08.108Z,9.31
2023-04-23T04:22:04.914Z,8.98
2023-04-23T04:23:01.763Z,8.93
2023-04-23T04:23:58.543Z,9.57
2023-04-23T04:24:56.286Z,9.41
2023-04-23T04:25:56.485Z,9.20
2023-04-23T04:26:54.124Z,9.31
2023-04-23T04:27:51.128Z,9.37
2023-04-23T04:28:47.834Z,9.15
2023-04-23T04:29:44.596Z,9.56
2023-04-23T04:30:42.683Z,9.44
2023-04-23T04:31:39.688Z,9.36
2023-04-23T04:32:38.875Z,8.93
2023-04-23T04:33:36.083Z,9.65
2023-04-23T04:34:33.096Z,9.32
2023-04-23T04:35:29.975Z,9.77
2023-04-23T04:36:27.361Z,10.16
2023-04-23T04:37:24.605Z,9.80
2023-04-23T04:38:22.288Z,9.15
2023-04-23T04:39:19.233Z,9.44
2023-04-23T04:40:16.031Z,9.31
2023-04-23T04:41:13.319Z,9.91
2023-04-23T04:42:10.833Z,9.94
2023-04-23T04:43:07.725Z,9.58
2023-04-23T04:44:04.631Z,9.67
2023-04-23T04:45:01.437Z,9.56
2023-04-23T04:45:59.200Z,9.45
2023-04-23T04:46:56.644Z,9.53
2023-04-23T04:47:53.471Z,9.53
2023-04-23T04:48:50.283Z,10.07
2023-04-23T04:49:47.251Z,9.97
2023-04-23T04:50:44.450Z,9.86
2023-04-23T04:51:41.793Z,10.23
2023-04-23T04:52:38.585Z,9.84
2023-04-23T04:53:36.093Z,10.06
2023-04-23T04:54:32.944Z,9.94
2023-04-23T04:55:31.144Z,9.74
2023-04-23T04:56:28.144Z,9.56
2023-04-23T04:57:24.942Z,9.64
2023-04-23T04:58:21.687Z,10.52
2023-04-23T04:59:18.375Z,10.19
2023-04-23T05:00:24.688Z,9.83
2023-04-23T05:01:40.337Z,10.02
2023-04-23T05:02:37.237Z,10.04
2023-04-23T05:03:34.346Z,10.18
2023-04-23T05:04:31.292Z,9.98
2023-04-23T05:05:28.431Z,9.86
2023-04-23T05:06:25.516Z,10.09
2023-04-23T05:07:22.322Z,10.81
2023-04-23T05:08:21.433Z,10.91
2023-04-23T05:09:18.312Z,10.65
2023-04-23T05:10:15.890Z,10.69
2023-04-23T05:11:12.704Z,10.78
2023-04-23T05:12:09.547Z,10.45
2023-04-23T05:13:06.372Z,10.09
2023-04-23T05:14:04.453Z,10.08
2023-04-23T05:15:01.198Z,9.96
2023-04-23T05:15:57.936Z,9.89
2023-04-23T05:16:54.733Z,10.14
2023-04-23T05:17:53.618Z,9.23
2023-04-23T05:18:50.471Z,9.91
2023-04-23T05:19:47.431Z,10.10
2023-04-23T05:20:44.459Z,11.20
2023-04-23T05:21:42.590Z,11.53
2023-04-23T05:22:41.622Z,10.88
2023-04-23T05:23:38.417Z,10.38
2023-04-23T05:24:35.171Z,10.39
2023-04-23T05:25:32.299Z,10.46
2023-04-23T05:26:29.502Z,10.17
2023-04-23T05:27:26.869Z,10.39
2023-04-23T05:28:23.803Z,9.88
2023-04-23T05:29:20.553Z,10.06
2023-04-23T05:30:17.470Z,9.89
2023-04-23T05:31:14.406Z,9.95
2023-04-23T05:32:11.474Z,10.11
2023-04-23T05:33:08.751Z,9.67
2023-04-23T05:34:05.476Z,10.76
2023-04-23T05:35:03.952Z,10.89
2023-04-23T05:36:00.809Z,11.07
2023-04-23T05:36:57.614Z,11.43
2023-04-23T05:37:54.330Z,10.89
2023-04-23T05:38:51.060Z,10.86
2023-04-23T05:39:47.864Z,10.17
2023-04-23T05:40:44.655Z,10.75
2023-04-23T05:41:41.439Z,10.79
2023-04-23T05:42:38.542Z,10.65
2023-04-23T05:43:35.325Z,11.46
2023-04-23T05:44:32.071Z,11.10
2023-04-23T05:45:29.006Z,11.12
2023-04-23T05:46:26.228Z,11.83
2023-04-23T05:47:23.053Z,11.75
2023-04-23T05:48:19.888Z,11.93
2023-04-23T05:49:16.617Z,11.57
2023-04-23T05:50:13.478Z,11.45
2023-04-23T05:51:10.208Z,10.91
2023-04-23T05:52:07.226Z,11.66
2023-04-23T05:53:04.068Z,11.28
2023-04-23T05:54:00.943Z,10.32
2023-04-23T05:54:57.950Z,10.67
2023-04-23T05:55:54.713Z,10.12
2023-04-23T05:56:53.490Z,10.74
2023-04-23T05:57:51.418Z,11.49
2023-04-23T05:58:48.217Z,11.55
2023-04-23T05:59:45.285Z,11.86
2023-04-23T06:00:42.171Z,11.95
2023-04-23T06:01:39.086Z,12.07
2023-04-23T06:02:35.900Z,12.27
2023-04-23T06:03:32.928Z,11.83
2023-04-23T06:04:30.136Z,11.12
2023-04-23T06:05:27.288Z,10.86
2023-04-23T06:06:24.139Z,10.84
2023-04-23T06:07:21.047Z,11.19
2023-04-23T06:08:18.450Z,12.15
2023-04-23T06:09:15.441Z,11.83
2023-04-23T06:10:12.891Z,11.46
2023-04-23T06:11:09.603Z,12.21
2023-04-23T06:12:06.573Z,12.16
2023-04-23T06:13:03.472Z,12.52
2023-04-23T06:14:00.329Z,12.69
2023-04-23T06:14:57.150Z,12.71
2023-04-23T06:15:53.964Z,12.69
2023-04-23T06:16:50.696Z,12.62
2023-04-23T06:17:47.500Z,12.14
2023-04-23T06:18:44.250Z,12.39
2023-04-23T06:19:41.610Z,12.52
2023-04-23T06:20:38.550Z,12.30
2023-04-23T06:21:35.366Z,12.59
2023-04-23T06:22:32.812Z,12.50
2023-04-23T06:23:29.996Z,12.53
2023-04-23T06:24:26.786Z,12.30
2023-04-23T06:25:23.745Z,12.49
2023-04-23T06:26:20.814Z,12.32
2023-04-23T06:27:17.569Z,11.46
2023-04-23T06:28:14.391Z,11.20
2023-04-23T06:29:11.125Z,11.94
2023-04-23T06:30:08.798Z,11.99
2023-04-23T06:31:06.326Z,12.20
2023-04-23T06:32:03.548Z,12.78
2023-04-23T06:33:01.567Z,13.21
2023-04-23T06:33:58.458Z,13.11
2023-04-23T06:35:01.575Z,12.72
2023-04-23T06:35:59.118Z,12.88
2023-04-23T06:36:55.863Z,12.33
2023-04-23T06:37:52.602Z,12.24
2023-04-23T06:38:49.312Z,11.51
2023-04-23T06:39:46.298Z,11.38
2023-04-23T06:40:43.049Z,11.74
2023-04-23T06:41:39.956Z,11.66
2023-04-23T06:42:36.707Z,10.49
2023-04-23T06:43:34.327Z,11.57
2023-04-23T06:44:31.108Z,11.71
2023-04-23T06:45:27.829Z,12.19
2023-04-23T06:46:24.662Z,11.32
2023-04-23T06:47:21.357Z,10.37
2023-04-23T06:48:18.670Z,11.70
2023-04-23T06:49:16.056Z,11.85
2023-04-23T06:50:12.852Z,12.42
2023-04-23T06:51:09.588Z,12.19
2023-04-23T06:52:06.333Z,13.12
2023-04-23T06:53:03.338Z,12.14
2023-04-23T06:54:00.335Z,11.72
2023-04-23T06:54:57.035Z,12.12
2023-04-23T06:55:53.821Z,12.25
2023-04-23T06:56:51.174Z,12.37
2023-04-23T06:57:48.013Z,12.28
2023-04-23T06:58:44.812Z,12.59
2023-04-23T06:59:41.610Z,12.40
2023-04-23T07:00:38.446Z,12.69
2023-04-23T07:01:35.401Z,12.46
2023-04-23T07:02:32.267Z,12.81
2023-04-23T07:03:29.237Z,13.00
2023-04-23T07:04:26.282Z,12.38
2023-04-23T07:05:23.159Z,13.28
2023-04-23T07:06:20.384Z,13.43
2023-04-23T07:07:17.404Z,13.57
2023-04-23T07:08:14.696Z,13.69
2023-04-23T07:09:11.509Z,14.12
2023-04-23T07:10:09.505Z,14.18
2023-04-23T07:11:06.323Z,14.42
2023-04-23T07:12:03.349Z,14.42
2023-04-23T07:13:00.074Z,13.31
2023-04-23T07:13:56.913Z,13.31
2023-04-23T07:14:54.432Z,12.84
2023-04-23T07:15:51.214Z,13.26
2023-04-23T07:16:47.992Z,13.34
2023-04-23T07:17:44.842Z,14.06
2023-04-23T07:18:41.663Z,13.16
2023-04-23T07:19:42.436Z,12.99
2023-04-23T07:20:39.195Z,13.05
2023-04-23T07:21:35.950Z,13.90
2023-04-23T07:22:33.310Z,14.31
2023-04-23T07:23:30.254Z,13.46
2023-04-23T07:24:27.204Z,13.74
2023-04-23T07:25:24.723Z,14.08
2023-04-23T07:26:25.447Z,14.67
2023-04-23T07:27:22.269Z,14.47
2023-04-23T07:28:19.012Z,13.89
2023-04-23T07:29:15.872Z,14.55
2023-04-23T07:30:13.118Z,14.83
2023-04-23T07:31:10.603Z,14.90
2023-04-23T07:32:07.557Z,14.22
2023-04-23T07:33:04.561Z,14.57
2023-04-23T07:34:01.459Z,13.82
2023-04-23T07:34:58.202Z,13.89
2023-04-23T07:35:54.962Z,14.47
2023-04-23T07:36:52.284Z,14.48
2023-04-23T07:37:56.551Z,14.46
2023-04-23T07:38:53.759Z,14.44
2023-04-23T07:39:50.483Z,15.07
2023-04-23T07:40:47.462Z,15.18
2023-04-23T07:41:44.226Z,15.49
2023-04-23T07:42:40.985Z,14.39
2023-04-23T07:43:38.654Z,14.54
2023-04-23T07:44:35.474Z,14.47
2023-04-23T07:45:32.154Z,14.60
2023-04-23T07:46:28.939Z,14.10
2023-04-23T07:47:25.901Z,15.05
2023-04-23T07:48:22.783Z,14.55
2023-04-23T07:49:19.533Z,13.98
2023-04-23T07:50:16.439Z,14.97
2023-04-23T07:51:13.178Z,15.22
2023-04-23T07:52:10.079Z,15.30
2023-04-23T07:53:06.858Z,15.11
2023-04-23T07:54:03.792Z,15.16
2023-04-23T07:55:00.739Z,15.69
2023-04-23T07:55:57.882Z,14.41
2023-04-23T07:56:54.724Z,15.52
2023-04-23T07:57:51.472Z,14.22
2023-04-23T07:58:48.629Z,15.61
2023-04-23T07:59:45.392Z,15.92
2023-04-23T08:00:42.286Z,16.16
2023-04-23T08:01:39.138Z,15.34
2023-04-23T08:02:36.113Z,15.33
2023-04-23T08:03:33.064Z,15.41
2023-04-23T08:04:30.230Z,15.47
2023-04-23T08:05:27.618Z,15.61
2023-04-23T08:06:24.439Z,16.32
2023-04-23T08:07:21.248Z,16.33
2023-04-23T08:08:18.079Z,15.07
2023-04-23T08:09:14.887Z,15.93
2023-04-23T08:10:11.753Z,15.73
2023-04-23T08:11:08.804Z,15.86
2023-04-23T08:12:05.616Z,16.12
2023-04-23T08:13:03.258Z,15.97
2023-04-23T08:14:01.504Z,15.37
2023-04-23T08:14:58.420Z,16.22
2023-04-23T08:15:55.306Z,15.72
2023-04-23T08:16:52.219Z,16.60
2023-04-23T08:17:49.117Z,16.85
2023-04-23T08:18:57.888Z,15.66
2023-04-23T08:20:01.360Z,15.86
2023-04-23T08:20:58.331Z,16.20
2023-04-23T08:21:55.176Z,15.56
2023-04-23T08:22:53.823Z,15.99
2023-04-23T08:23:50.648Z,15.72
2023-04-23T08:24:47.589Z,15.89
2023-04-23T08:25:44.295Z,16.29
2023-04-23T08:26:41.007Z,16.63
2023-04-23T08:27:37.873Z,16.73
2023-04-23T08:28:34.682Z,16.26
2023-04-23T08:29:31.429Z,16.27
2023-04-23T08:30:28.198Z,16.34
2023-04-23T08:31:27.081Z,15.97
2023-04-23T08:32:24.426Z,15.49
2023-04-23T08:33:21.464Z,15.72
2023-04-23T08:34:18.194Z,15.88
2023-04-23T08:35:14.989Z,16.38
2023-04-23T08:36:11.708Z,16.58
2023-04-23T08:37:13.905Z,16.54
2023-04-23T08:38:16.713Z,17.12
2023-04-23T08:39:13.594Z,17.03
2023-04-23T08:40:10.734Z,16.64
2023-04-23T08:41:11.657Z,16.80
2023-04-23T08:42:32.797Z,16.72
2023-04-23T08:43:43.309Z,17.03
2023-04-23T08:44:43.210Z,16.53
2023-04-23T08:45:41.734Z,16.00
2023-04-23T08:46:43.214Z,15.94
2023-04-23T08:47:43.486Z,16.22
2023-04-23T08:48:41.696Z,16.39
2023-04-23T08:49:46.575Z,16.49
2023-04-23T08:50:44.540Z,16.81
2023-04-23T08:51:48.372Z,16.42
2023-04-23T08:52:53.974Z,17.26
2023-04-23T08:53:56.190Z,16.42
2023-04-23T08:54:54.966Z,15.64
2023-04-23T08:55:52.485Z,16.46
2023-04-23T08:56:51.395Z,16.59
2023-04-23T08:57:49.788Z,16.97
2023-04-23T08:58:47.801Z,16.99
2023-04-23T08:59:46.579Z,16.70
2023-04-23T09:00:43.981Z,16.58
2023-04-23T09:01:42.039Z,16.59
2023-04-23T09:02:41.917Z,16.36
2023-04-23T09:03:41.017Z,16.83
2023-04-23T09:04:39.195Z,16.90
2023-04-23T09:05:36.713Z,16.85
2023-04-23T09:06:33.841Z,16.65
2023-04-23T09:07:30.796Z,15.71
2023-04-23T09:08:27.683Z,16.14
2023-04-23T09:09:28.572Z,16.60
2023-04-23T09:10:28.602Z,16.60
2023-04-23T09:11:28.729Z,16.66
2023-04-23T09:12:28.825Z,16.55
2023-04-23T09:13:26.962Z,16.54
2023-04-23T09:14:27.555Z,16.23
2023-04-23T09:15:27.202Z,17.73
2023-04-23T09:16:27.224Z,17.71
2023-04-23T09:17:30.741Z,17.27
2023-04-23T09:18:35.430Z,17.42
2023-04-23T09:19:40.138Z,17.02
2023-04-23T09:20:39.761Z,16.27
2023-04-23T09:21:40.574Z,15.46
2023-04-23T09:22:48.892Z,16.78
2023-04-23T09:23:45.665Z,17.37
2023-04-23T09:24:45.413Z,17.05
2023-04-23T09:25:42.186Z,16.29
2023-04-23T09:26:49.808Z,16.96
2023-04-23T09:27:52.009Z,17.05
2023-04-23T09:28:51.678Z,16.61
2023-04-23T09:29:57.283Z,17.18
2023-04-23T09:30:56.263Z,17.23
2023-04-23T09:31:58.709Z,17.19
2023-04-23T09:32:55.566Z,16.71
2023-04-23T09:33:56.732Z,16.75
2023-04-23T09:34:59.645Z,16.27
2023-04-23T09:35:59.463Z,16.29
2023-04-23T09:36:56.539Z,16.51
2023-04-23T09:37:55.395Z,16.74
2023-04-23T09:38:57.089Z,16.82
2023-04-23T09:39:56.983Z,16.62
2023-04-23T09:40:53.847Z,17.14
2023-04-23T09:41:54.415Z,16.98
2023-04-23T09:42:54.776Z,16.88
2023-04-23T09:43:58.386Z,17.01
2023-04-23T09:45:03.137Z,17.14
2023-04-23T09:46:01.446Z,16.85
2023-04-23T09:47:12.383Z,16.78
2023-04-23T09:48:09.224Z,16.29
2023-04-23T09:49:12.617Z,16.48
2023-04-23T09:50:12.642Z,16.59
2023-04-23T09:51:09.624Z,16.94
2023-04-23T09:52:10.518Z,16.91
2023-04-23T09:53:14.066Z,16.97
2023-04-23T09:54:15.588Z,17.22
2023-04-23T09:55:12.303Z,17.09
2023-04-23T09:56:12.086Z,17.23
2023-04-23T09:57:09.057Z,17.52
2023-04-23T09:58:13.506Z,16.16
2023-04-23T09:59:45.287Z,17.04
2023-04-23T10:00:43.950Z,17.45
2023-04-23T10:01:49.442Z,17.21
2023-04-23T10:02:49.270Z,17.24
2023-04-23T10:03:53.615Z,16.49
2023-04-23T10:05:10.103Z,16.81
2023-04-23T10:06:37.018Z,17.15
2023-04-23T10:07:35.487Z,17.09
2023-04-23T10:08:32.780Z,17.56
2023-04-23T10:09:30.763Z,17.54
2023-04-23T10:10:27.891Z,17.30
2023-04-23T10:11:28.471Z,17.58
2023-04-23T10:13:26.928Z,17.72
2023-04-23T10:14:25.892Z,17.86
2023-04-23T10:15:26.925Z,17.82
2023-04-23T10:16:28.536Z,17.58
2023-04-23T10:17:34.655Z,17.44
2023-04-23T10:18:33.238Z,17.48
2023-04-23T10:19:30.440Z,17.60
2023-04-23T10:20:27.237Z,17.66
2023-04-23T10:21:32.150Z,17.51
2023-04-23T10:22:37.828Z,17.84
2023-04-23T10:23:38.794Z,17.25
2023-04-23T10:24:40.706Z,17.37
2023-04-23T10:25:40.543Z,18.04
2023-04-23T10:26:43.389Z,17.65
2023-04-23T10:27:53.192Z,17.58
2023-04-23T10:28:55.049Z,17.82
2023-04-23T10:29:53.669Z,17.93
2023-04-23T10:30:51.638Z,17.93
2023-04-23T10:31:49.910Z,17.67
2023-04-23T10:32:49.837Z,18.11
2023-04-23T10:34:54.104Z,18.04
2023-04-23T10:35:52.766Z,18.04
2023-04-23T10:36:51.450Z,17.82
2023-04-23T10:37:49.427Z,17.94
2023-04-23T10:38:57.174Z,17.73
2023-04-23T10:39:59.450Z,17.70
2023-04-23T10:40:59.006Z,17.85
2023-04-23T10:41:56.888Z,17.97
2023-04-23T10:42:55.540Z,17.72
2023-04-23T10:43:53.780Z,17.69
2023-04-23T10:44:59.342Z,18.17
2023-04-23T10:46:00.958Z,18.34
2023-04-23T10:47:00.811Z,18.33
2023-04-23T10:47:59.088Z,17.91
2023-04-23T10:49:16.776Z,18.29
2023-04-23T10:50:27.979Z,18.17
2023-04-23T10:52:17.114Z,18.21
2023-04-23T10:52:54.286Z,18.17
2023-04-23T10:53:52.030Z,18.25
2023-04-23T10:54:56.652Z,18.30
2023-04-23T10:56:07.835Z,18.58
2023-04-23T10:57:07.134Z,18.54
2023-04-23T10:58:08.524Z,18.99
2023-04-23T10:59:18.424Z,19.08
2023-04-23T11:00:16.258Z,18.73
2023-04-23T11:01:13.081Z,18.46
2023-04-23T11:02:13.368Z,18.52
2023-04-23T11:03:41.961Z,18.55
2023-04-23T11:04:54.965Z,18.17
2023-04-23T11:05:51.740Z,18.47
2023-04-23T11:06:48.372Z,18.77
2023-04-23T11:09:29.566Z,18.47
2023-04-23T11:10:26.268Z,17.98
2023-04-23T11:11:41.203Z,18.83
2023-04-23T11:12:40.487Z,18.91
2023-04-23T11:13:53.251Z,18.96
2023-04-23T11:14:51.993Z,18.55
2023-04-23T11:15:48.856Z,18.23
2023-04-23T11:16:49.167Z,18.06
2023-04-23T11:17:47.447Z,18.28
2023-04-23T11:19:08.852Z,18.14
2023-04-23T11:20:15.109Z,18.70
2023-04-23T11:21:13.466Z,17.82
2023-04-23T11:22:18.733Z,18.43
2023-04-23T11:23:33.120Z,18.26
2023-04-23T11:24:33.869Z,18.80
2023-04-23T11:25:30.738Z,18.82
2023-04-23T11:26:31.610Z,18.88
2023-04-23T11:27:32.220Z,18.91
2023-04-23T11:28:36.168Z,18.73
2023-04-23T11:29:33.255Z,18.80
2023-04-23T11:30:31.041Z,18.82
2023-04-23T11:31:29.041Z,18.90
2023-04-23T11:32:28.280Z,18.72
2023-04-23T11:33:25.536Z,18.89
2023-04-23T11:34:22.837Z,19.08
2023-04-23T11:35:28.548Z,18.51
2023-04-23T11:36:25.432Z,18.40
2023-04-23T11:37:22.177Z,18.36
2023-04-23T11:38:21.122Z,18.21
2023-04-23T11:39:19.330Z,19.12
2023-04-23T11:40:21.393Z,18.81
2023-04-23T11:41:23.405Z,18.92
2023-04-23T11:42:20.361Z,19.29
2023-04-23T11:43:21.321Z,18.75
2023-04-23T11:44:22.063Z,19.20
2023-04-23T11:45:27.111Z,19.35
2023-04-23T11:46:24.435Z,19.41
2023-04-23T11:47:21.306Z,18.47
2023-04-23T11:48:18.121Z,18.75
2023-04-23T11:49:16.959Z,19.00
2023-04-23T11:50:20.625Z,19.33
2023-04-23T11:51:17.464Z,19.45
2023-04-23T11:52:14.735Z,18.95
2023-04-23T11:53:18.510Z,19.02
2023-04-23T11:54:15.383Z,19.14
2023-04-23T11:55:13.161Z,19.24
2023-04-23T11:56:10.465Z,19.31
2023-04-23T11:57:07.316Z,19.25
2023-04-23T11:58:04.571Z,19.39
2023-04-23T11:59:05.368Z,19.19
2023-04-23T12:00:12.282Z,18.80
2023-04-23T12:01:12.697Z,19.04
2023-04-23T12:02:09.586Z,19.28
2023-04-23T12:03:06.562Z,18.88
2023-04-23T12:04:13.969Z,19.33
2023-04-23T12:05:11.217Z,19.51
2023-04-23T12:06:10.727Z,19.25
2023-04-23T12:07:15.960Z,19.53
2023-04-23T12:08:22.856Z,19.24
2023-04-23T12:09:22.117Z,19.23
2023-04-23T12:10:28.234Z,18.88
2023-04-23T12:11:25.034Z,18.46
2023-04-23T12:12:21.779Z,18.91
2023-04-23T12:13:22.387Z,19.20
2023-04-23T12:14:27.114Z,19.06
2023-04-23T12:15:23.866Z,18.29
2023-04-23T12:16:41.126Z,18.97
2023-04-23T12:17:38.300Z,19.20
2023-04-23T12:18:46.761Z,19.08
2023-04-23T12:19:45.039Z,17.83
2023-04-23T12:20:41.891Z,19.07
2023-04-23T12:21:57.267Z,19.02
2023-04-23T12:22:53.964Z,18.70
2023-04-23T12:23:51.972Z,19.18
2023-04-23T12:24:54.448Z,18.89
2023-04-23T12:26:00.059Z,18.87
2023-04-23T12:27:00.904Z,18.94
2023-04-23T12:28:00.450Z,19.47
2023-04-23T12:29:00.037Z,18.53
2023-04-23T12:30:01.041Z,19.13
2023-04-23T12:31:02.929Z,19.76
2023-04-23T12:32:00.538Z,19.11
2023-04-23T12:33:04.634Z,19.94
2023-04-23T12:34:04.653Z,20.06
2023-04-23T12:35:01.465Z,19.86
2023-04-23T12:36:00.589Z,19.91
2023-04-23T12:36:57.816Z,19.96
2023-04-23T12:37:54.712Z,19.17
2023-04-23T12:38:51.857Z,19.53
2023-04-23T12:39:53.055Z,19.02
2023-04-23T12:40:50.552Z,19.55
2023-04-23T12:41:47.544Z,19.39
2023-04-23T12:42:44.371Z,19.69
2023-04-23T12:43:41.337Z,19.48
2023-04-23T12:44:40.819Z,19.72
2023-04-23T12:45:39.917Z,19.81
2023-04-23T12:46:36.705Z,19.63
2023-04-23T12:47:33.609Z,18.78
2023-04-23T12:48:30.773Z,19.76
2023-04-23T12:49:32.152Z,19.20